createdAt,value
2023-03-28T00:00:12.380Z,2.88
2023-03-28T00:01:44.215Z,3.83
2023-03-28T00:03:19.411Z,1.73
2023-03-28T00:04:52.936Z,1.15
2023-03-28T00:06:26.593Z,2.80
2023-03-28T00:08:00.011Z,4.22
2023-03-28T00:09:31.994Z,2.33
2023-03-28T00:11:08.199Z,2.65
2023-03-28T00:12:40.189Z,3.22
2023-03-28T00:14:14.342Z,2.88
2023-03-28T00:15:46.436Z,3.45
2023-03-28T00:17:18.246Z,2.40
2023-03-28T00:18:51.166Z,2.90
2023-03-28T00:20:23.316Z,1.80
2023-03-28T00:21:57.691Z,0.85
2023-03-28T00:23:31.301Z,1.65
2023-03-28T00:25:03.210Z,1.33
2023-03-28T00:26:36.155Z,3.83
2023-03-28T00:28:08.331Z,2.42
2023-03-28T00:29:40.133Z,2.17
2023-03-28T00:31:12.699Z,3.05
2023-03-28T00:32:44.758Z,1.70
2023-03-28T00:34:17.249Z,3.42
2023-03-28T00:35:49.142Z,2.50
2023-03-28T00:37:22.875Z,2.38
2023-03-28T00:38:56.185Z,1.83
2023-03-28T00:40:31.088Z,2.88
2023-03-28T00:42:04.287Z,3.45
2023-03-28T00:43:42.101Z,1.58
2023-03-28T00:45:13.915Z,2.28
2023-03-28T00:46:45.796Z,3.65
2023-03-28T00:48:18.250Z,4.88
2023-03-28T00:49:50.458Z,4.75
2023-03-28T00:51:30.252Z,2.50
2023-03-28T00:53:10.317Z,3.80
2023-03-28T00:54:42.276Z,3.03
2023-03-28T00:56:18.518Z,4.88
2023-03-28T00:57:53.179Z,3.78
2023-03-28T00:59:29.138Z,2.55
2023-03-28T01:01:01.518Z,2.25
2023-03-28T01:02:33.889Z,4.95
2023-03-28T01:04:07.004Z,3.13
2023-03-28T01:05:38.997Z,1.73
2023-03-28T01:07:11.343Z,2.45
2023-03-28T01:08:47.250Z,1.77
2023-03-28T01:10:21.694Z,3.13
2023-03-28T01:11:56.465Z,2.45
2023-03-28T01:13:32.893Z,4.20
2023-03-28T01:15:05.535Z,5.85
2023-03-28T01:16:48.091Z,3.25
2023-03-28T01:18:22.992Z,3.50
2023-03-28T01:20:32.778Z,6.60
2023-03-28T01:22:56.457Z,3.83
2023-03-28T01:25:07.678Z,6.22
2023-03-28T01:26:49.774Z,2.92
2023-03-28T01:28:48.272Z,4.45
2023-03-28T01:30:37.086Z,2.95
2023-03-28T01:33:06.010Z,3.63
2023-03-28T01:35:15.885Z,2.80
2023-03-28T01:36:53.517Z,2.63
2023-03-28T01:38:40.958Z,5.25
2023-03-28T01:40:50.288Z,5.15
2023-03-28T01:42:34.491Z,5.32
2023-03-28T01:44:17.965Z,2.30
2023-03-28T01:46:07.184Z,5.07
2023-03-28T01:47:57.284Z,4.30
2023-03-28T01:49:42.336Z,5.53
2023-03-28T01:51:35.709Z,2.33
2023-03-28T01:53:15.133Z,7.78
2023-03-28T01:55:17.394Z,4.90
2023-03-28T01:57:23.119Z,3.72
2023-03-28T01:59:06.978Z,4.88
2023-03-28T02:01:17.639Z,4.25
2023-03-28T02:02:57.195Z,6.60
2023-03-28T02:04:36.900Z,2.83
2023-03-28T02:06:11.563Z,3.88
2023-03-28T02:07:49.064Z,6.72
2023-03-28T02:09:24.963Z,3.42
2023-03-28T02:11:18.680Z,5.32
2023-03-28T02:13:13.952Z,3.92
2023-03-28T02:14:55.113Z,4.55
2023-03-28T02:17:09.498Z,3.83
2023-03-28T02:19:12.672Z,4.97
2023-03-28T02:20:53.789Z,4.00
2023-03-28T02:22:59.349Z,3.53
2023-03-28T02:24:52.063Z,4.75
2023-03-28T02:26:54.707Z,3.42
2023-03-28T02:28:44.968Z,4.47
2023-03-28T02:30:36.254Z,5.07
2023-03-28T02:32:08.733Z,2.85
2023-03-28T02:33:43.362Z,6.72
2023-03-28T02:35:16.143Z,4.10
2023-03-28T02:37:12.344Z,2.92
2023-03-28T02:38:59.243Z,3.65
2023-03-28T02:40:45.387Z,9.20
2023-03-28T02:42:26.732Z,6.32
2023-03-28T02:44:11.075Z,4.95
2023-03-28T02:45:51.986Z,4.90
2023-03-28T02:47:31.025Z,2.33
2023-03-28T02:49:24.726Z,2.33
2023-03-28T02:51:11.340Z,4.93
2023-03-28T02:52:54.178Z,4.57
2023-03-28T02:54:36.245Z,3.72
2023-03-28T02:56:51.299Z,4.45
2023-03-28T02:59:02.164Z,5.72
2023-03-28T03:00:34.855Z,4.03
2023-03-28T03:02:08.653Z,2.63
2023-03-28T03:03:42.485Z,4.03
2023-03-28T03:05:14.613Z,5.10
2023-03-28T03:06:46.483Z,6.10
2023-03-28T03:08:18.298Z,6.03
2023-03-28T03:09:53.925Z,6.82
2023-03-28T03:11:28.287Z,6.63
2023-03-28T03:13:00.151Z,4.03
2023-03-28T03:14:32.362Z,4.53
2023-03-28T03:16:24.053Z,5.90
2023-03-28T03:17:58.916Z,4.25
2023-03-28T03:19:34.758Z,6.30
2023-03-28T03:21:06.966Z,3.30
2023-03-28T03:22:41.056Z,2.08
2023-03-28T03:24:14.541Z,1.05
2023-03-28T03:25:50.804Z,1.67
2023-03-28T03:27:28.097Z,1.17
2023-03-28T03:29:00.951Z,1.20
2023-03-28T03:30:33.530Z,1.15
2023-03-28T03:32:23.890Z,1.00
2023-03-28T03:34:06.062Z,1.52
2023-03-28T03:35:46.022Z,3.35
2023-03-28T03:37:18.621Z,1.05
2023-03-28T03:38:50.876Z,0.80
2023-03-28T03:40:27.278Z,1.98
2023-03-28T03:41:59.555Z,0.63
2023-03-28T03:43:31.431Z,0.88
2023-03-28T03:45:06.066Z,0.63
2023-03-28T03:46:38.373Z,0.80
2023-03-28T03:48:10.260Z,2.13
2023-03-28T03:49:43.317Z,1.98
2023-03-28T03:51:15.115Z,2.83
2023-03-28T03:52:47.153Z,2.05
2023-03-28T03:54:19.239Z,1.88
2023-03-28T03:55:51.296Z,1.95
2023-03-28T03:57:23.435Z,0.52
2023-03-28T03:59:02.512Z,2.88
2023-03-28T04:00:37.786Z,0.40
2023-03-28T04:02:12.368Z,0.65
2023-03-28T04:04:04.181Z,1.55
2023-03-28T04:05:48.139Z,1.58
2023-03-28T04:07:20.218Z,2.08
2023-03-28T04:08:54.009Z,1.17
2023-03-28T04:10:42.899Z,2.03
2023-03-28T04:12:14.774Z,1.05
2023-03-28T04:13:51.046Z,2.78
2023-03-28T04:15:22.845Z,1.83
2023-03-28T04:17:04.809Z,1.00
2023-03-28T04:18:36.680Z,0.95
2023-03-28T04:20:13.109Z,1.63
2023-03-28T04:22:08.233Z,2.30
2023-03-28T04:23:44.190Z,0.85
2023-03-28T04:25:41.794Z,0.77
2023-03-28T04:27:21.266Z,2.55
2023-03-28T04:28:53.636Z,2.55
2023-03-28T04:30:25.993Z,1.45
2023-03-28T04:32:24.867Z,1.55
2023-03-28T04:34:12.708Z,1.95
2023-03-28T04:36:02.841Z,1.17
2023-03-28T04:37:37.931Z,0.90
2023-03-28T04:39:11.580Z,3.03
2023-03-28T04:41:02.476Z,1.25
2023-03-28T04:42:54.638Z,2.17
2023-03-28T04:44:31.354Z,3.17
2023-03-28T04:46:07.855Z,1.80
2023-03-28T04:47:40.364Z,2.50
2023-03-28T04:49:19.159Z,1.90
2023-03-28T04:50:51.079Z,0.93
2023-03-28T04:52:22.898Z,1.95
2023-03-28T04:53:54.650Z,1.70
2023-03-28T04:55:50.692Z,1.25
2023-03-28T04:57:27.689Z,2.33
2023-03-28T04:59:05.006Z,1.70
2023-03-28T05:00:39.574Z,1.15
2023-03-28T05:02:11.762Z,2.63
2023-03-28T05:03:47.404Z,1.02
2023-03-28T05:05:19.258Z,0.90
2023-03-28T05:06:51.132Z,1.48
2023-03-28T05:08:26.502Z,1.35
2023-03-28T05:09:58.579Z,1.27
2023-03-28T05:11:37.125Z,1.00
2023-03-28T05:13:09.331Z,3.03
2023-03-28T05:14:48.794Z,2.22
2023-03-28T05:16:22.127Z,1.48
2023-03-28T05:18:15.557Z,2.15
2023-03-28T05:19:47.585Z,2.10
2023-03-28T05:21:22.826Z,2.25
2023-03-28T05:22:58.351Z,2.88
2023-03-28T05:24:30.144Z,2.22
2023-03-28T05:26:02.802Z,1.48
2023-03-28T05:27:38.911Z,2.03
2023-03-28T05:29:11.003Z,2.55
2023-03-28T05:30:43.435Z,2.60
2023-03-28T05:32:15.738Z,2.08
2023-03-28T05:33:47.820Z,2.25
2023-03-28T05:35:29.564Z,4.43
2023-03-28T05:37:02.633Z,2.58
2023-03-28T05:38:40.215Z,2.83
2023-03-28T05:40:19.127Z,4.60
2023-03-28T05:41:51.151Z,3.40
2023-03-28T05:43:23.025Z,2.83
2023-03-28T05:44:54.848Z,2.17
2023-03-28T05:46:41.241Z,2.78
2023-03-28T05:48:14.539Z,3.60
2023-03-28T05:49:46.760Z,2.45
2023-03-28T05:51:18.628Z,3.30
2023-03-28T05:52:50.542Z,2.00
2023-03-28T05:54:22.384Z,4.15
2023-03-28T05:55:54.428Z,3.55
2023-03-28T05:57:26.410Z,3.85
2023-03-28T05:58:58.640Z,2.65
2023-03-28T06:00:30.520Z,2.95
2023-03-28T06:02:03.545Z,3.92
2023-03-28T06:03:40.471Z,5.35
2023-03-28T06:05:13.928Z,4.43
2023-03-28T06:06:48.827Z,4.68
2023-03-28T06:08:24.399Z,2.88
2023-03-28T06:09:58.034Z,2.22
2023-03-28T06:11:30.024Z,3.55
2023-03-28T06:13:11.897Z,5.50
2023-03-28T06:14:43.896Z,4.72
2023-03-28T06:16:30.336Z,2.58
2023-03-28T06:18:03.405Z,5.45
2023-03-28T06:19:35.512Z,2.95
2023-03-28T06:21:08.595Z,3.92
2023-03-28T06:22:40.834Z,2.65
2023-03-28T06:24:15.934Z,4.82
2023-03-28T06:25:50.608Z,2.88
2023-03-28T06:27:24.360Z,2.08
2023-03-28T06:28:56.619Z,1.50
2023-03-28T06:30:40.233Z,2.33
2023-03-28T06:32:13.774Z,1.92
2023-03-28T06:33:46.055Z,3.35
2023-03-28T06:35:18.498Z,2.53
2023-03-28T06:36:50.267Z,3.55
2023-03-28T06:38:22.214Z,2.28
2023-03-28T06:39:57.254Z,2.53
2023-03-28T06:41:29.131Z,4.68
2023-03-28T06:43:01.629Z,2.33
2023-03-28T06:44:46.384Z,2.80
2023-03-28T06:46:34.151Z,3.03
2023-03-28T06:48:06.240Z,2.53
2023-03-28T06:49:56.711Z,2.05
2023-03-28T06:51:40.528Z,3.80
2023-03-28T06:53:12.427Z,2.25
2023-03-28T06:54:46.018Z,2.13
2023-03-28T06:56:19.714Z,3.15
2023-03-28T06:57:51.751Z,1.77
2023-03-28T06:59:33.663Z,2.30
2023-03-28T07:01:10.495Z,3.50
2023-03-28T07:03:03.011Z,2.13
2023-03-28T07:04:35.619Z,3.78
2023-03-28T07:06:10.994Z,2.83
2023-03-28T07:07:42.883Z,4.57
2023-03-28T07:09:14.969Z,4.32
2023-03-28T07:10:53.639Z,3.30
2023-03-28T07:12:26.406Z,3.80
2023-03-28T07:13:58.419Z,2.72
2023-03-28T07:15:30.560Z,2.65
2023-03-28T07:17:02.420Z,2.35
2023-03-28T07:18:34.316Z,3.33
2023-03-28T07:20:07.038Z,2.40
2023-03-28T07:21:38.879Z,3.92
2023-03-28T07:23:10.733Z,3.08
2023-03-28T07:24:42.540Z,3.80
2023-03-28T07:26:17.856Z,2.30
2023-03-28T07:27:51.054Z,2.97
2023-03-28T07:29:22.969Z,2.25
2023-03-28T07:30:56.385Z,2.83
2023-03-28T07:32:38.709Z,4.00
2023-03-28T07:34:18.852Z,3.28
2023-03-28T07:35:51.077Z,2.88
2023-03-28T07:37:23.341Z,2.22
2023-03-28T07:39:12.176Z,2.47
2023-03-28T07:40:45.092Z,2.00
2023-03-28T07:42:17.017Z,2.72
2023-03-28T07:43:48.881Z,2.88
2023-03-28T07:45:21.549Z,1.67
2023-03-28T07:46:54.877Z,2.95
2023-03-28T07:48:26.710Z,2.20
2023-03-28T07:49:58.495Z,4.00
2023-03-28T07:51:31.835Z,2.65
2023-03-28T07:53:03.918Z,3.08
2023-03-28T07:54:40.337Z,2.88
2023-03-28T07:56:13.240Z,2.83
2023-03-28T07:58:03.446Z,1.67
2023-03-28T07:59:41.716Z,1.98
2023-03-28T08:01:13.970Z,2.88
2023-03-28T08:02:52.152Z,3.45
2023-03-28T08:04:24.337Z,2.85
2023-03-28T08:06:16.624Z,2.42
2023-03-28T08:07:56.644Z,5.13
2023-03-28T08:09:28.640Z,4.57
2023-03-28T08:11:15.871Z,2.35
2023-03-28T08:12:48.505Z,3.20
2023-03-28T08:14:20.552Z,2.28
2023-03-28T08:15:55.638Z,1.52
2023-03-28T08:17:28.475Z,2.67
2023-03-28T08:19:10.747Z,2.05
2023-03-28T08:21:03.165Z,1.98
2023-03-28T08:22:38.232Z,1.48
2023-03-28T08:24:35.763Z,2.58
2023-03-28T08:26:15.635Z,1.70
2023-03-28T08:27:52.404Z,3.15
2023-03-28T08:29:24.430Z,4.65
2023-03-28T08:30:56.307Z,4.75
2023-03-28T08:32:28.280Z,3.65
2023-03-28T08:34:01.531Z,2.00
2023-03-28T08:35:39.583Z,1.77
2023-03-28T08:37:21.852Z,3.45
2023-03-28T08:39:00.525Z,1.67
2023-03-28T08:40:37.708Z,2.80
2023-03-28T08:42:33.196Z,4.15
2023-03-28T08:44:07.593Z,1.67
2023-03-28T08:45:59.266Z,2.67
2023-03-28T08:47:33.552Z,1.60
2023-03-28T08:49:12.158Z,1.77
2023-03-28T08:50:50.835Z,2.33
2023-03-28T08:52:23.346Z,2.45
2023-03-28T08:54:01.353Z,1.95
2023-03-28T08:55:40.829Z,1.95
2023-03-28T08:57:19.320Z,1.20
2023-03-28T08:59:08.479Z,2.05
2023-03-28T09:00:40.411Z,2.38
2023-03-28T09:02:21.846Z,3.13
2023-03-28T09:03:53.867Z,2.17
2023-03-28T09:05:52.848Z,2.25
2023-03-28T09:07:56.229Z,2.42
2023-03-28T09:09:49.304Z,1.17
2023-03-28T09:11:55.870Z,1.67
2023-03-28T09:13:30.558Z,2.45
2023-03-28T09:15:34.749Z,0.93
2023-03-28T09:17:24.039Z,1.23
2023-03-28T09:19:45.286Z,1.77
2023-03-28T09:22:12.426Z,1.40
2023-03-28T09:24:08.381Z,1.10
2023-03-28T09:26:11.123Z,1.23
2023-03-28T09:27:55.180Z,1.95
2023-03-28T09:29:28.886Z,2.60
2023-03-28T09:31:02.241Z,1.33
2023-03-28T09:32:39.640Z,1.00
2023-03-28T09:34:24.126Z,2.20
2023-03-28T09:36:00.236Z,0.60
2023-03-28T09:37:41.089Z,0.60
2023-03-28T09:39:27.279Z,0.63
2023-03-28T09:41:07.601Z,0.68
2023-03-28T09:42:53.601Z,0.40
2023-03-28T09:44:54.991Z,1.15
2023-03-28T09:46:48.803Z,3.13
2023-03-28T09:48:40.502Z,0.75
2023-03-28T09:50:18.361Z,2.13
2023-03-28T09:51:55.771Z,1.20
2023-03-28T09:53:34.781Z,1.98
2023-03-28T09:55:19.238Z,0.77
2023-03-28T09:56:52.221Z,0.60
2023-03-28T09:59:03.533Z,1.67
2023-03-28T10:00:51.902Z,1.05
2023-03-28T10:02:56.229Z,0.53
2023-03-28T10:04:28.285Z,0.82
2023-03-28T10:06:32.019Z,0.70
2023-03-28T10:08:22.553Z,1.55
2023-03-28T10:10:16.608Z,0.68
2023-03-28T10:11:57.639Z,1.85
2023-03-28T10:13:37.060Z,0.95
2023-03-28T10:15:30.649Z,0.85
2023-03-28T10:17:37.474Z,1.08
2023-03-28T10:19:14.344Z,0.85
2023-03-28T10:21:17.772Z,0.60
2023-03-28T10:22:56.870Z,0.88
2023-03-28T10:24:30.106Z,0.80
2023-03-28T10:26:09.131Z,0.30
2023-03-28T10:27:41.871Z,0.93
2023-03-28T10:29:15.600Z,0.45
2023-03-28T10:30:56.284Z,0.63
2023-03-28T10:32:31.930Z,0.45
2023-03-28T10:34:27.802Z,1.63
2023-03-28T10:36:10.925Z,0.50
2023-03-28T10:37:43.295Z,0.47
2023-03-28T10:39:35.656Z,0.73
2023-03-28T10:41:36.494Z,0.43
2023-03-28T10:43:34.111Z,1.83
2023-03-28T10:45:33.800Z,1.20
2023-03-28T10:47:12.200Z,0.40
2023-03-28T10:49:19.211Z,2.10
2023-03-28T10:51:08.771Z,2.13
2023-03-28T10:52:51.781Z,1.73
2023-03-28T10:54:46.112Z,1.38
2023-03-28T10:56:39.674Z,2.58
2023-03-28T10:58:40.176Z,2.67
2023-03-28T11:00:29.589Z,1.00
2023-03-28T11:02:09.088Z,0.80
2023-03-28T11:03:58.644Z,1.52
2023-03-28T11:06:01.762Z,1.00
2023-03-28T11:07:52.602Z,1.50
2023-03-28T11:10:04.534Z,2.05
2023-03-28T11:12:23.055Z,2.35
2023-03-28T11:14:28.885Z,1.17
2023-03-28T11:16:25.590Z,1.60
2023-03-28T11:18:32.518Z,0.63
2023-03-28T11:20:36.234Z,0.70
2023-03-28T11:22:34.913Z,0.60
2023-03-28T11:24:24.109Z,0.70
2023-03-28T11:26:17.287Z,1.05
2023-03-28T11:28:46.563Z,1.67
2023-03-28T11:30:32.369Z,1.25
2023-03-28T11:32:20.919Z,0.70
2023-03-28T11:34:04.542Z,0.70
2023-03-28T11:35:42.323Z,1.13
2023-03-28T11:37:22.887Z,1.67
2023-03-28T11:39:01.398Z,0.77
2023-03-28T11:40:47.281Z,1.10
2023-03-28T11:42:27.868Z,1.55
2023-03-28T11:44:05.840Z,1.83
2023-03-28T11:45:50.011Z,0.82
2023-03-28T11:47:58.001Z,0.82
2023-03-28T11:49:38.332Z,1.33
2023-03-28T11:51:25.874Z,0.75
2023-03-28T11:53:07.362Z,1.27
2023-03-28T11:54:57.893Z,1.08
2023-03-28T11:56:51.235Z,0.80
2023-03-28T11:58:37.445Z,0.70
2023-03-28T12:00:33.194Z,1.65
2023-03-28T12:02:32.449Z,0.80
2023-03-28T12:04:22.710Z,0.60
2023-03-28T12:06:11.157Z,1.38
2023-03-28T12:08:12.715Z,0.73
2023-03-28T12:10:02.111Z,1.50
2023-03-28T12:11:42.368Z,0.95
2023-03-28T12:13:25.726Z,1.70
2023-03-28T12:15:17.364Z,1.65
2023-03-28T12:17:10.711Z,2.63
2023-03-28T12:18:48.334Z,0.90
2023-03-28T12:21:00.005Z,0.95
2023-03-28T12:22:45.189Z,1.02
2023-03-28T12:24:34.338Z,2.17
2023-03-28T12:26:59.962Z,0.60
2023-03-28T12:28:43.683Z,1.70
2023-03-28T12:30:24.896Z,0.77
2023-03-28T12:32:25.516Z,2.30
2023-03-28T12:34:09.085Z,1.85
2023-03-28T12:36:29.102Z,1.45
2023-03-28T12:38:14.459Z,1.35
2023-03-28T12:40:08.339Z,3.42
2023-03-28T12:41:41.308Z,2.15
2023-03-28T12:43:17.277Z,1.85
2023-03-28T12:44:51.739Z,2.63
2023-03-28T12:46:59.344Z,1.58
2023-03-28T12:48:44.806Z,0.85
2023-03-28T12:50:48.684Z,1.00
2023-03-28T12:52:27.147Z,2.30
2023-03-28T12:54:08.542Z,1.73
2023-03-28T12:55:44.616Z,1.75
2023-03-28T12:57:46.156Z,1.13
2023-03-28T12:59:48.225Z,1.77
2023-03-28T13:01:50.609Z,1.88
2023-03-28T13:03:35.166Z,2.08
2023-03-28T13:07:06.626Z,2.50
2023-03-28T13:09:23.221Z,1.50
2023-03-28T13:11:01.182Z,2.15
2023-03-28T13:12:44.829Z,1.40
2023-03-28T13:14:42.363Z,1.75
2023-03-28T13:16:26.801Z,2.20
2023-03-28T13:18:17.542Z,1.92
2023-03-28T13:19:54.704Z,1.30
2023-03-28T13:21:54.864Z,1.52
2023-03-28T13:23:50.177Z,3.08
2023-03-28T13:25:26.115Z,1.75
2023-03-28T13:26:59.425Z,2.97
2023-03-28T13:28:42.067Z,1.30
2023-03-28T13:30:27.851Z,0.98
2023-03-28T13:32:04.794Z,2.72
2023-03-28T13:33:38.908Z,1.75
2023-03-28T13:35:38.514Z,2.10
2023-03-28T13:37:25.519Z,2.35
2023-03-28T13:39:20.348Z,3.47
2023-03-28T13:40:56.173Z,2.67
2023-03-28T13:42:33.681Z,1.88
2023-03-28T13:44:12.278Z,1.52
2023-03-28T13:45:44.115Z,1.92
2023-03-28T13:47:29.511Z,2.00
2023-03-28T13:49:11.035Z,2.08
2023-03-28T13:50:45.713Z,2.13
2023-03-28T13:52:23.157Z,2.95
2023-03-28T13:53:55.148Z,1.58
2023-03-28T13:55:27.414Z,1.73
2023-03-28T13:57:06.718Z,4.03
2023-03-28T13:58:38.622Z,2.05
2023-03-28T14:00:17.075Z,2.80
2023-03-28T14:02:00.429Z,2.53
2023-03-28T14:03:36.757Z,1.70
2023-03-28T14:05:11.742Z,0.98
2023-03-28T14:06:43.543Z,3.78
2023-03-28T14:08:15.381Z,2.55
2023-03-28T14:09:47.164Z,3.38
2023-03-28T14:11:32.828Z,1.30
2023-03-28T14:13:10.621Z,2.63
2023-03-28T14:14:46.213Z,1.92
2023-03-28T14:16:20.319Z,1.83
2023-03-28T14:17:52.232Z,3.65
2023-03-28T14:19:35.666Z,1.38
2023-03-28T14:21:08.321Z,2.28
2023-03-28T14:22:57.373Z,2.80
2023-03-28T14:24:32.070Z,2.20
2023-03-28T14:26:12.682Z,1.75
2023-03-28T14:27:50.674Z,2.22
2023-03-28T14:29:23.112Z,2.95
2023-03-28T14:30:55.583Z,2.40
2023-03-28T14:32:32.659Z,2.95
2023-03-28T14:34:16.604Z,2.80
2023-03-28T14:35:59.214Z,1.80
2023-03-28T14:37:31.449Z,2.35
2023-03-28T14:39:13.876Z,3.13
2023-03-28T14:40:45.996Z,3.28
2023-03-28T14:42:20.217Z,3.08
2023-03-28T14:43:55.570Z,3.08
2023-03-28T14:45:29.114Z,1.42
2023-03-28T14:47:01.187Z,2.58
2023-03-28T14:48:35.242Z,3.85
2023-03-28T14:50:08.449Z,3.05
2023-03-28T14:51:47.325Z,1.40
2023-03-28T14:53:25.702Z,1.80
2023-03-28T14:54:58.832Z,1.58
2023-03-28T14:56:32.082Z,2.00
2023-03-28T14:58:06.218Z,1.92
2023-03-28T14:59:41.885Z,2.17
2023-03-28T15:01:23.326Z,2.55
2023-03-28T15:02:55.930Z,1.42
2023-03-28T15:04:29.455Z,1.55
2023-03-28T15:06:01.945Z,1.27
2023-03-28T15:07:35.930Z,1.33
2023-03-28T15:09:22.882Z,2.90
2023-03-28T15:10:55.804Z,2.10
2023-03-28T15:12:27.776Z,2.10
2023-03-28T15:14:05.102Z,1.77
2023-03-28T15:15:42.157Z,2.55
2023-03-28T15:17:20.637Z,1.48
2023-03-28T15:19:22.401Z,1.38
2023-03-28T15:21:01.151Z,2.25
2023-03-28T15:22:35.045Z,1.55
2023-03-28T15:24:12.206Z,2.85
2023-03-28T15:25:44.892Z,1.27
2023-03-28T15:27:37.119Z,1.52
2023-03-28T15:29:10.457Z,3.33
2023-03-28T15:30:44.550Z,2.17
2023-03-28T15:32:20.620Z,3.17
2023-03-28T15:33:54.616Z,2.38
2023-03-28T15:35:41.031Z,1.52
2023-03-28T15:37:20.802Z,2.28
2023-03-28T15:39:00.391Z,3.28
2023-03-28T15:40:38.846Z,2.40
2023-03-28T15:42:19.926Z,2.45
2023-03-28T15:43:54.727Z,1.83
2023-03-28T15:45:37.502Z,3.42
2023-03-28T15:47:19.538Z,1.40
2023-03-28T15:48:58.107Z,2.17
2023-03-28T15:50:37.066Z,3.17
2023-03-28T15:52:18.338Z,1.52
2023-03-28T15:53:51.053Z,1.63
2023-03-28T15:55:25.829Z,1.50
2023-03-28T15:57:01.253Z,5.90
2023-03-28T15:58:35.158Z,3.15
2023-03-28T16:00:07.734Z,1.65
2023-03-28T16:01:44.551Z,2.03
2023-03-28T16:03:32.750Z,1.90
2023-03-28T16:05:06.413Z,2.22
2023-03-28T16:06:42.822Z,2.40
2023-03-28T16:08:42.282Z,1.73
2023-03-28T16:10:23.133Z,1.52
2023-03-28T16:12:14.969Z,2.17
2023-03-28T16:13:47.132Z,3.03
2023-03-28T16:15:37.641Z,1.42
2023-03-28T16:17:28.929Z,2.85
2023-03-28T16:19:19.859Z,2.20
2023-03-28T16:20:51.660Z,2.67
2023-03-28T16:22:24.306Z,2.35
2023-03-28T16:23:56.101Z,3.53
2023-03-28T16:25:28.837Z,3.92
2023-03-28T16:27:02.998Z,2.58
2023-03-28T16:28:36.089Z,2.80
2023-03-28T16:30:18.906Z,5.53
2023-03-28T16:31:51.487Z,2.60
2023-03-28T16:33:24.771Z,2.15
2023-03-28T16:34:56.545Z,3.60
2023-03-28T16:36:28.355Z,3.10
2023-03-28T16:38:01.307Z,2.90
2023-03-28T16:39:33.686Z,2.70
2023-03-28T16:41:05.965Z,3.13
2023-03-28T16:42:38.059Z,3.10
2023-03-28T16:44:09.967Z,2.65
2023-03-28T16:45:42.574Z,2.90
2023-03-28T16:47:15.821Z,2.20
2023-03-28T16:48:47.868Z,2.72
2023-03-28T16:50:19.661Z,5.47
2023-03-28T16:51:51.790Z,3.42
2023-03-28T16:53:23.605Z,2.55
2023-03-28T16:54:55.493Z,2.15
2023-03-28T16:56:27.738Z,2.03
2023-03-28T16:57:59.794Z,4.10
2023-03-28T16:59:40.606Z,2.13
2023-03-28T17:01:19.812Z,3.63
2023-03-28T17:02:51.713Z,2.90
2023-03-28T17:04:23.600Z,3.33
2023-03-28T17:05:55.607Z,4.68
2023-03-28T17:07:27.704Z,2.55
2023-03-28T17:08:59.602Z,1.70
2023-03-28T17:10:31.614Z,1.42
2023-03-28T17:12:03.434Z,1.58
2023-03-28T17:13:36.429Z,1.45
2023-03-28T17:15:09.677Z,3.42
2023-03-28T17:16:41.524Z,2.92
2023-03-28T17:18:13.370Z,3.40
2023-03-28T17:19:45.296Z,2.25
2023-03-28T17:21:18.668Z,1.77
2023-03-28T17:22:51.035Z,2.33
2023-03-28T17:24:23.691Z,2.38
2023-03-28T17:25:56.845Z,2.22
2023-03-28T17:27:29.030Z,2.35
2023-03-28T17:29:01.115Z,3.75
2023-03-28T17:30:32.973Z,2.58
2023-03-28T17:32:05.168Z,2.45
2023-03-28T17:34:21.345Z,2.60
2023-03-28T17:35:53.955Z,2.05
2023-03-28T17:37:25.751Z,3.50
2023-03-28T17:38:58.762Z,2.00
2023-03-28T17:40:30.520Z,3.20
2023-03-28T17:42:02.358Z,2.03
2023-03-28T17:43:34.071Z,2.83
2023-03-28T17:45:07.345Z,2.75
2023-03-28T17:46:39.372Z,1.95
2023-03-28T17:48:12.713Z,2.13
2023-03-28T17:49:44.446Z,4.03
2023-03-28T17:51:17.601Z,4.68
2023-03-28T17:52:49.377Z,2.70
2023-03-28T17:54:21.107Z,2.90
2023-03-28T17:55:52.950Z,2.58
2023-03-28T17:57:24.905Z,2.03
2023-03-28T17:58:56.941Z,2.88
2023-03-28T18:00:31.330Z,3.38
2023-03-28T18:02:04.318Z,2.75
2023-03-28T18:03:37.141Z,2.45
2023-03-28T18:05:38.375Z,3.40
2023-03-28T18:07:16.497Z,2.15
2023-03-28T18:08:49.411Z,4.88
2023-03-28T18:10:21.350Z,2.47
2023-03-28T18:11:53.471Z,2.28
2023-03-28T18:13:25.652Z,3.05
2023-03-28T18:15:00.329Z,2.97
2023-03-28T18:16:32.950Z,3.00
2023-03-28T18:18:05.095Z,2.92
2023-03-28T18:19:36.988Z,2.83
2023-03-28T18:21:11.517Z,2.80
2023-03-28T18:22:43.821Z,4.72
2023-03-28T18:24:15.935Z,2.38
2023-03-28T18:25:48.844Z,4.25
2023-03-28T18:27:20.835Z,3.97
2023-03-28T18:28:52.650Z,3.45
2023-03-28T18:30:24.447Z,5.22
2023-03-28T18:31:56.857Z,3.42
2023-03-28T18:33:28.706Z,5.22
2023-03-28T18:35:01.020Z,3.75
2023-03-28T18:36:32.971Z,4.53
2023-03-28T18:38:05.153Z,5.47
2023-03-28T18:39:37.453Z,5.22
2023-03-28T18:41:10.593Z,6.38
2023-03-28T18:42:42.378Z,5.60
2023-03-28T18:44:14.453Z,5.30
2023-03-28T18:45:54.277Z,4.72
2023-03-28T18:47:26.287Z,6.53
2023-03-28T18:49:01.613Z,4.60
2023-03-28T18:50:33.757Z,5.85
2023-03-28T18:52:05.559Z,5.43
2023-03-28T18:53:40.556Z,6.35
2023-03-28T18:55:12.455Z,4.10
2023-03-28T18:56:44.374Z,5.38
2023-03-28T18:58:16.390Z,7.82
2023-03-28T18:59:52.720Z,6.72
2023-03-28T19:01:24.842Z,6.20
2023-03-28T19:02:56.851Z,5.07
2023-03-28T19:04:28.798Z,5.10
2023-03-28T19:06:02.379Z,6.03
2023-03-28T19:07:34.505Z,4.50
2023-03-28T19:09:06.465Z,5.47
2023-03-28T19:10:38.377Z,4.68
2023-03-28T19:12:12.509Z,5.25
2023-03-28T19:13:44.456Z,5.60
2023-03-28T19:15:17.215Z,4.95
2023-03-28T19:16:49.387Z,5.75
2023-03-28T19:18:21.317Z,5.50
2023-03-28T19:19:53.185Z,5.25
2023-03-28T19:21:25.046Z,5.03
2023-03-28T19:22:56.966Z,6.03
2023-03-28T19:24:28.975Z,4.70
2023-03-28T19:26:01.080Z,5.50
2023-03-28T19:27:33.567Z,4.88
2023-03-28T19:29:05.638Z,5.95
2023-03-28T19:30:40.829Z,4.22
2023-03-28T19:32:12.749Z,7.72
2023-03-28T19:33:45.196Z,3.60
2023-03-28T19:35:17.140Z,5.10
2023-03-28T19:36:49.062Z,5.10
2023-03-28T19:38:22.355Z,4.20
2023-03-28T19:39:54.215Z,5.95
2023-03-28T19:41:26.779Z,4.22
2023-03-28T19:42:58.819Z,4.25
2023-03-28T19:44:31.705Z,4.40
2023-03-28T19:46:09.081Z,3.75
2023-03-28T19:47:41.084Z,3.85
2023-03-28T19:49:13.492Z,3.60
2023-03-28T19:50:45.565Z,3.90
2023-03-28T19:52:17.460Z,4.93
2023-03-28T19:53:49.441Z,4.82
2023-03-28T19:55:21.363Z,4.03
2023-03-28T19:56:53.285Z,5.00
2023-03-28T19:58:26.878Z,3.63
2023-03-28T19:59:58.742Z,3.80
2023-03-28T20:01:30.880Z,4.97
2023-03-28T20:03:03.192Z,5.15
2023-03-28T20:04:35.387Z,5.05
2023-03-28T20:06:11.476Z,3.67
2023-03-28T20:07:43.360Z,5.03
2023-03-28T20:09:15.681Z,6.90
2023-03-28T20:10:51.666Z,4.65
2023-03-28T20:12:23.636Z,4.45
2023-03-28T20:13:55.471Z,6.10
2023-03-28T20:15:27.387Z,5.40
2023-03-28T20:17:00.322Z,6.63
2023-03-28T20:18:32.997Z,8.57
2023-03-28T20:20:05.491Z,7.75
2023-03-28T20:21:37.366Z,9.25
2023-03-28T20:23:10.045Z,8.15
2023-03-28T20:24:42.282Z,7.80
2023-03-28T20:26:19.508Z,6.88
2023-03-28T20:27:52.206Z,7.53
2023-03-28T20:29:25.111Z,5.07
2023-03-28T20:30:57.250Z,5.13
2023-03-28T20:32:29.225Z,5.50
2023-03-28T20:34:01.177Z,5.20
2023-03-28T20:35:33.516Z,5.32
2023-03-28T20:37:05.503Z,4.32
2023-03-28T20:38:37.611Z,3.97
2023-03-28T20:40:12.880Z,3.88
2023-03-28T20:41:45.809Z,4.85
2023-03-28T20:43:20.910Z,2.55
2023-03-28T20:44:53.569Z,4.28
2023-03-28T20:46:26.765Z,4.28
2023-03-28T20:48:06.473Z,3.58
2023-03-28T20:49:46.531Z,3.15
2023-03-28T20:51:19.130Z,3.55
2023-03-28T20:52:51.877Z,2.90
2023-03-28T20:54:24.670Z,4.80
2023-03-28T20:56:01.966Z,2.38
2023-03-28T20:57:40.536Z,2.70
2023-03-28T20:59:12.788Z,4.85
2023-03-28T21:00:46.444Z,2.95
2023-03-28T21:02:18.316Z,2.50
2023-03-28T21:03:51.241Z,3.80
2023-03-28T21:05:25.111Z,4.25
2023-03-28T21:06:57.825Z,2.40
2023-03-28T21:08:29.727Z,3.20
2023-03-28T21:10:01.711Z,3.40
2023-03-28T21:11:36.148Z,3.28
2023-03-28T21:13:08.237Z,4.15
2023-03-28T21:14:40.091Z,5.72
2023-03-28T21:16:14.626Z,3.83
2023-03-28T21:17:49.671Z,3.15
2023-03-28T21:19:21.743Z,3.50
2023-03-28T21:20:53.654Z,5.68
2023-03-28T21:22:26.040Z,2.90
2023-03-28T21:23:57.965Z,3.50
2023-03-28T21:25:29.831Z,2.63
2023-03-28T21:27:02.096Z,2.80
2023-03-28T21:28:34.901Z,3.20
2023-03-28T21:30:08.611Z,3.20
2023-03-28T21:31:40.485Z,3.28
2023-03-28T21:33:16.299Z,3.05
2023-03-28T21:34:48.601Z,5.55
2023-03-28T21:36:20.779Z,2.83
2023-03-28T21:37:52.713Z,3.97
2023-03-28T21:39:24.879Z,3.40
2023-03-28T21:40:57.017Z,2.95
2023-03-28T21:42:28.912Z,3.10
2023-03-28T21:44:00.843Z,3.67
2023-03-28T21:45:32.705Z,3.13
2023-03-28T21:47:04.603Z,3.63
2023-03-28T21:48:37.672Z,5.30
2023-03-28T21:50:13.039Z,3.90
2023-03-28T21:51:46.481Z,4.63
2023-03-28T21:53:18.367Z,6.43
2023-03-28T21:54:50.212Z,3.38
2023-03-28T21:56:23.192Z,5.60
2023-03-28T21:57:55.235Z,4.95
2023-03-28T21:59:27.221Z,6.60
2023-03-28T22:01:01.838Z,3.75